createdAt,value
2023-01-02T00:01:30.476Z,8.95
2023-01-02T00:03:59.384Z,12.35
2023-01-02T00:06:28.004Z,8.77
2023-01-02T00:08:57.793Z,10.88
2023-01-02T00:11:26.210Z,10.82
2023-01-02T00:13:54.616Z,7.18
2023-01-02T00:16:23.139Z,7.40
2023-01-02T00:18:51.743Z,8.57
2023-01-02T00:21:20.468Z,10.02
2023-01-02T00:23:48.883Z,8.18
2023-01-02T00:26:18.683Z,7.55
2023-01-02T00:28:47.100Z,6.68
2023-01-02T00:31:17.076Z,4.88
2023-01-02T00:33:45.502Z,6.20
2023-01-02T00:36:14.450Z,7.30
2023-01-02T00:38:42.969Z,8.27
2023-01-02T00:41:11.685Z,10.20
2023-01-02T00:43:43.530Z,7.72
2023-01-02T00:46:12.596Z,11.23
2023-01-02T00:48:41.052Z,11.70
2023-01-02T00:51:09.789Z,8.32
2023-01-02T00:53:38.389Z,7.18
2023-01-02T00:56:07.099Z,7.18
2023-01-02T00:58:35.561Z,8.63
2023-01-02T01:01:06.053Z,7.40
2023-01-02T01:03:34.568Z,6.95
2023-01-02T01:06:07.656Z,8.00
2023-01-02T01:08:36.827Z,7.53
2023-01-02T01:11:08.871Z,7.28
2023-01-02T01:13:37.659Z,7.20
2023-01-02T01:16:08.943Z,8.88
2023-01-02T01:18:37.733Z,9.73
2023-01-02T01:21:10.065Z,7.30
2023-01-02T01:23:38.501Z,11.07
2023-01-02T01:26:07.793Z,9.88
2023-01-02T01:28:36.545Z,9.55
2023-01-02T01:31:05.122Z,10.63
2023-01-02T01:33:34.936Z,12.05
2023-01-02T01:36:03.852Z,10.65
2023-01-02T01:38:32.928Z,8.77
2023-01-02T01:41:01.571Z,8.23
2023-01-02T01:43:40.380Z,10.73
2023-01-02T01:46:10.890Z,5.75
2023-01-02T01:48:40.853Z,8.23
2023-01-02T01:51:09.371Z,9.00
2023-01-02T01:53:37.906Z,9.00
2023-01-02T01:56:07.979Z,8.50
2023-01-02T01:58:39.334Z,10.30
2023-01-02T02:01:08.066Z,12.27
2023-01-02T02:03:37.166Z,13.48
2023-01-02T02:06:07.171Z,8.13
2023-01-02T02:08:38.543Z,10.10
2023-01-02T02:11:07.713Z,11.38
2023-01-02T02:13:36.238Z,9.20
2023-01-02T02:16:09.575Z,12.57
2023-01-02T02:18:46.522Z,10.27
2023-01-02T02:21:26.749Z,8.55
2023-01-02T02:24:04.450Z,5.80
2023-01-02T02:26:50.815Z,11.18
2023-01-02T02:29:34.110Z,10.52
2023-01-02T02:32:08.327Z,11.50
2023-01-02T02:34:40.562Z,10.15
2023-01-02T02:37:14.072Z,7.30
2023-01-02T02:39:48.102Z,7.97
2023-01-02T02:42:31.723Z,11.02
2023-01-02T02:45:03.661Z,11.48
2023-01-02T02:47:35.755Z,10.45
2023-01-02T02:50:07.415Z,11.35
2023-01-02T02:52:39.069Z,14.15
2023-01-02T02:55:10.248Z,12.10
2023-01-02T02:57:40.255Z,11.05
2023-01-02T03:00:10.713Z,12.20
2023-01-02T03:02:40.740Z,9.23
2023-01-02T03:05:10.112Z,7.63
2023-01-02T03:07:41.124Z,9.80
2023-01-02T03:10:17.157Z,9.77
2023-01-02T03:12:48.730Z,10.10
2023-01-02T03:15:20.513Z,10.63
2023-01-02T03:18:03.787Z,9.05
2023-01-02T03:20:35.597Z,13.00
2023-01-02T03:23:07.295Z,12.25
2023-01-02T03:25:36.282Z,8.80
2023-01-02T03:28:06.906Z,7.22
2023-01-02T03:30:36.992Z,12.15
2023-01-02T03:33:06.762Z,11.57
2023-01-02T03:35:38.389Z,8.93
2023-01-02T03:38:08.749Z,11.20
2023-01-02T03:40:39.256Z,12.90
2023-01-02T03:43:10.942Z,9.20
2023-01-02T03:45:42.240Z,8.45
2023-01-02T03:48:12.369Z,10.48
2023-01-02T03:50:47.284Z,9.85
2023-01-02T03:53:15.852Z,9.43
2023-01-02T03:55:48.444Z,11.65
2023-01-02T03:58:20.346Z,8.50
2023-01-02T04:00:53.551Z,8.68
2023-01-02T04:03:23.571Z,12.05
2023-01-02T04:05:54.724Z,11.48
2023-01-02T04:08:24.788Z,10.05
2023-01-02T04:10:58.328Z,9.07
2023-01-02T04:13:29.636Z,10.63
2023-01-02T04:15:58.874Z,9.18
2023-01-02T04:18:28.572Z,10.13
2023-01-02T04:21:00.751Z,15.43
2023-01-02T04:23:31.212Z,9.15
2023-01-02T04:26:02.679Z,14.02
2023-01-02T04:28:32.040Z,9.90
2023-01-02T04:31:04.531Z,8.13
2023-01-02T04:33:33.907Z,9.35
2023-01-02T04:36:10.275Z,10.02
2023-01-02T04:38:38.793Z,12.70
2023-01-02T04:41:08.593Z,11.88
2023-01-02T04:43:37.024Z,9.93
2023-01-02T04:46:05.580Z,10.38
2023-01-02T04:48:34.072Z,8.80
2023-01-02T04:51:02.583Z,8.65
2023-01-02T04:53:32.371Z,7.60
2023-01-02T04:56:00.855Z,6.45
2023-01-02T04:58:29.278Z,9.73
2023-01-02T05:00:57.720Z,6.78
2023-01-02T05:03:26.246Z,10.68
2023-01-02T05:06:01.500Z,9.25
2023-01-02T05:08:32.003Z,9.25
2023-01-02T05:11:00.422Z,5.18
2023-01-02T05:13:28.831Z,10.30
2023-01-02T05:15:57.762Z,8.27
2023-01-02T05:18:26.195Z,10.75
2023-01-02T05:20:54.615Z,8.98
2023-01-02T05:23:40.706Z,7.82
2023-01-02T05:26:13.441Z,6.93
2023-01-02T05:28:42.383Z,9.60
2023-01-02T05:31:11.054Z,9.55
2023-01-02T05:33:39.461Z,8.75
2023-01-02T05:36:08.614Z,5.30
2023-01-02T05:38:39.755Z,10.15
2023-01-02T05:41:09.467Z,5.60
2023-01-02T05:43:39.720Z,8.70
2023-01-02T05:46:12.014Z,7.38
2023-01-02T05:48:41.242Z,5.80
2023-01-02T05:51:11.006Z,5.85
2023-01-02T05:53:39.653Z,8.02
2023-01-02T05:56:08.882Z,7.35
2023-01-02T05:58:39.422Z,8.15
2023-01-02T06:01:08.418Z,6.75
2023-01-02T06:03:36.896Z,6.45
2023-01-02T06:06:06.312Z,9.55
2023-01-02T06:08:34.732Z,4.97
2023-01-02T06:11:03.313Z,5.60
2023-01-02T06:13:31.953Z,8.23
2023-01-02T06:16:02.622Z,8.38
2023-01-02T06:18:32.221Z,6.18
2023-01-02T06:21:00.981Z,8.98
2023-01-02T06:23:29.436Z,6.75
2023-01-02T06:25:57.875Z,6.57
2023-01-02T06:28:26.275Z,8.07
2023-01-02T06:30:54.759Z,8.57
2023-01-02T06:33:24.535Z,7.32
2023-01-02T06:35:58.470Z,6.13
2023-01-02T06:38:26.860Z,5.95
2023-01-02T06:40:55.616Z,7.38
2023-01-02T06:43:24.846Z,6.57
2023-01-02T06:45:53.795Z,5.80
2023-01-02T06:48:22.285Z,8.98
2023-01-02T06:50:52.086Z,4.60
2023-01-02T06:53:20.546Z,6.35
2023-01-02T06:55:55.972Z,3.78
2023-01-02T06:58:25.324Z,6.53
2023-01-02T07:00:54.284Z,6.28
2023-01-02T07:03:22.831Z,9.43
2023-01-02T07:05:52.654Z,6.05
2023-01-02T07:08:21.118Z,7.15
2023-01-02T07:10:53.020Z,5.57
2023-01-02T07:13:21.842Z,4.32
2023-01-02T07:15:50.264Z,6.72
2023-01-02T07:18:18.667Z,9.73
2023-01-02T07:20:47.140Z,6.25
2023-01-02T07:23:16.899Z,8.50
2023-01-02T07:25:45.303Z,6.38
2023-01-02T07:28:13.748Z,5.75
2023-01-02T07:30:42.170Z,8.95
2023-01-02T07:33:10.630Z,4.00
2023-01-02T07:35:39.108Z,5.45
2023-01-02T07:38:07.515Z,6.78
2023-01-02T07:40:37.329Z,5.10
2023-01-02T07:43:05.741Z,8.63
2023-01-02T07:45:34.918Z,4.82
2023-01-02T07:48:03.449Z,8.82
2023-01-02T07:50:31.853Z,7.63
2023-01-02T07:53:00.282Z,5.97
2023-01-02T07:55:28.707Z,6.18
2023-01-02T07:57:58.509Z,5.72
2023-01-02T08:00:27.063Z,6.50
2023-01-02T08:02:55.487Z,5.82
2023-01-02T08:05:24.094Z,5.88
2023-01-02T08:07:52.574Z,9.13
2023-01-02T08:10:20.991Z,6.22
2023-01-02T08:12:49.489Z,8.35
2023-01-02T08:15:19.398Z,3.92
2023-01-02T08:17:47.811Z,8.52
2023-01-02T08:20:16.315Z,5.45
2023-01-02T08:22:44.774Z,6.65
2023-01-02T08:25:13.258Z,10.27
2023-01-02T08:27:41.716Z,8.38
2023-01-02T08:30:10.409Z,6.20
2023-01-02T08:32:40.214Z,7.90
2023-01-02T08:35:09.473Z,8.95
2023-01-02T08:37:37.879Z,11.15
2023-01-02T08:40:06.874Z,9.35
2023-01-02T08:42:35.374Z,11.40
2023-01-02T08:45:03.810Z,5.13
2023-01-02T08:47:32.200Z,3.80
2023-01-02T08:50:01.999Z,4.50
2023-01-02T08:52:30.430Z,3.42
2023-01-02T08:55:00.931Z,3.45
2023-01-02T08:57:29.364Z,2.47
2023-01-02T08:59:57.900Z,2.25
2023-01-02T09:02:26.688Z,2.33
2023-01-02T09:04:55.336Z,2.88
2023-01-02T09:07:25.130Z,3.15
2023-01-02T09:09:53.566Z,2.95
2023-01-02T09:12:22.039Z,3.15
2023-01-02T09:14:50.515Z,1.85
2023-01-02T09:17:19.028Z,2.50
2023-01-02T09:19:48.645Z,2.20
2023-01-02T09:22:17.055Z,3.58
2023-01-02T09:24:46.868Z,3.08
2023-01-02T09:27:16.184Z,2.38
2023-01-02T09:29:44.617Z,2.58
2023-01-02T09:32:13.054Z,2.80
2023-01-02T09:34:41.471Z,2.38
2023-01-02T09:37:10.410Z,2.90
2023-01-02T09:39:38.896Z,2.92
2023-01-02T09:42:13.206Z,3.15
2023-01-02T09:44:42.794Z,3.33
2023-01-02T09:47:15.501Z,3.58
2023-01-02T09:49:45.659Z,5.32
2023-01-02T09:52:17.271Z,3.70
2023-01-02T09:54:45.750Z,3.55
2023-01-02T09:57:23.894Z,5.25
2023-01-02T09:59:55.710Z,9.18
2023-01-02T10:02:30.009Z,2.72
2023-01-02T10:05:08.692Z,6.60
2023-01-02T10:07:40.993Z,4.75
2023-01-02T10:10:11.695Z,5.38
2023-01-02T10:12:44.543Z,5.53
2023-01-02T10:15:15.653Z,5.60
2023-01-02T10:17:46.668Z,6.15
2023-01-02T10:20:23.957Z,6.90
2023-01-02T10:22:54.945Z,6.65
2023-01-02T10:25:24.436Z,7.45
2023-01-02T10:27:56.403Z,8.75
2023-01-02T10:30:26.231Z,8.27
2023-01-02T10:32:57.950Z,8.63
2023-01-02T10:35:36.445Z,8.80
2023-01-02T10:38:04.986Z,8.93
2023-01-02T10:40:33.727Z,12.25
2023-01-02T10:43:03.646Z,11.23
2023-01-02T10:45:32.139Z,11.27
2023-01-02T10:48:00.557Z,10.35
2023-01-02T10:50:31.102Z,12.68
2023-01-02T10:53:07.492Z,10.55
2023-01-02T10:55:39.105Z,10.43
2023-01-02T10:58:13.848Z,10.93
2023-01-02T11:00:42.386Z,11.10
2023-01-02T11:03:16.251Z,10.27
2023-01-02T11:05:49.175Z,10.90
2023-01-02T11:08:19.724Z,10.43
2023-01-02T11:10:48.213Z,11.65
2023-01-02T11:13:18.890Z,10.40
2023-01-02T11:15:51.445Z,10.60
2023-01-02T11:18:22.189Z,10.55
2023-01-02T11:20:52.247Z,12.35
2023-01-02T11:23:23.230Z,11.65
2023-01-02T11:25:52.715Z,10.93
2023-01-02T11:28:23.429Z,12.07
2023-01-02T11:30:53.264Z,12.10
2023-01-02T11:33:27.233Z,12.07
2023-01-02T11:35:56.938Z,13.80
2023-01-02T11:38:29.432Z,13.20
2023-01-02T11:40:59.896Z,13.63
2023-01-02T11:43:48.679Z,12.70
2023-01-02T11:46:24.005Z,12.77
2023-01-02T11:48:53.834Z,13.90
2023-01-02T11:51:23.342Z,12.98
2023-01-02T11:53:54.639Z,12.20
2023-01-02T11:56:27.181Z,11.38
2023-01-02T11:59:00.889Z,12.27
2023-01-02T12:01:31.598Z,11.35
2023-01-02T12:04:01.174Z,11.13
2023-01-02T12:06:37.207Z,10.80
2023-01-02T12:09:06.813Z,10.73
2023-01-02T12:11:45.651Z,10.48
2023-01-02T12:14:18.020Z,11.93
2023-01-02T12:16:48.885Z,9.57
2023-01-02T12:19:33.023Z,11.80
2023-01-02T12:22:08.763Z,9.85
2023-01-02T12:24:46.288Z,9.43
2023-01-02T12:27:16.981Z,11.63
2023-01-02T12:29:58.862Z,10.10
2023-01-02T12:32:42.241Z,10.00
2023-01-02T12:35:18.068Z,10.18
2023-01-02T12:37:49.932Z,9.77
2023-01-02T12:40:24.960Z,10.80
2023-01-02T12:43:03.960Z,10.68
2023-01-02T12:45:38.729Z,11.10
2023-01-02T12:48:12.053Z,11.35
2023-01-02T12:50:52.078Z,12.27
2023-01-02T12:53:23.793Z,11.88
2023-01-02T12:55:59.830Z,12.50
2023-01-02T12:58:49.156Z,11.65
2023-01-02T13:01:23.287Z,10.57
2023-01-02T13:03:58.299Z,11.65
2023-01-02T13:06:43.634Z,11.23
2023-01-02T13:09:22.323Z,11.23
2023-01-02T13:11:53.985Z,13.73
2023-01-02T13:14:24.928Z,10.00
2023-01-02T13:16:57.447Z,12.18
2023-01-02T13:19:30.125Z,10.65
2023-01-02T13:22:01.391Z,11.75
2023-01-02T13:24:30.243Z,11.02
2023-01-02T13:26:59.879Z,11.73
2023-01-02T13:29:29.680Z,11.95
2023-01-02T13:31:59.648Z,10.55
2023-01-02T13:34:29.874Z,11.95
2023-01-02T13:37:03.431Z,11.35
2023-01-02T13:39:34.401Z,10.60
2023-01-02T13:42:23.399Z,11.45
2023-01-02T13:44:52.776Z,9.95
2023-01-02T13:47:33.553Z,9.60
2023-01-02T13:50:04.931Z,8.02
2023-01-02T13:52:33.442Z,7.57
2023-01-02T13:55:12.697Z,7.60
2023-01-02T13:57:41.157Z,9.98
2023-01-02T14:00:31.724Z,7.97
2023-01-02T14:03:35.258Z,9.35
2023-01-02T14:06:04.787Z,9.60
2023-01-02T14:08:33.711Z,10.50
2023-01-02T14:11:03.778Z,8.13
2023-01-02T14:13:36.671Z,7.72
2023-01-02T14:16:17.741Z,8.38
2023-01-02T14:18:47.574Z,6.53
2023-01-02T14:21:17.701Z,5.70
2023-01-02T14:24:17.038Z,6.68
2023-01-02T14:26:39.881Z,8.50
2023-01-02T14:29:10.572Z,7.32
2023-01-02T14:31:39.546Z,9.73
2023-01-02T14:34:09.451Z,8.07
2023-01-02T14:36:42.276Z,9.25
2023-01-02T14:39:13.092Z,5.75
2023-01-02T14:42:27.657Z,5.22
2023-01-02T14:45:00.763Z,7.53
2023-01-02T14:47:35.090Z,5.75
2023-01-02T14:50:05.723Z,5.85
2023-01-02T14:52:40.731Z,7.63
2023-01-02T14:55:12.689Z,6.03
2023-01-02T14:57:41.935Z,6.35
2023-01-02T15:00:17.656Z,8.75
2023-01-02T15:02:47.687Z,5.20
2023-01-02T15:05:20.335Z,7.68
2023-01-02T15:07:50.389Z,8.48
2023-01-02T15:10:19.545Z,8.48
2023-01-02T15:13:07.717Z,6.53
2023-01-02T15:15:38.956Z,6.22
2023-01-02T15:18:11.003Z,7.75
2023-01-02T15:20:40.899Z,6.75
2023-01-02T15:23:09.405Z,6.75
2023-01-02T15:25:39.348Z,7.93
2023-01-02T15:28:08.180Z,8.05
2023-01-02T15:30:40.088Z,7.97
2023-01-02T15:33:08.681Z,9.73
2023-01-02T15:35:37.237Z,9.40
2023-01-02T15:38:20.414Z,7.75
2023-01-02T15:40:48.939Z,8.65
2023-01-02T15:43:35.472Z,8.93
2023-01-02T15:46:04.211Z,9.35
2023-01-02T15:48:32.696Z,10.30
2023-01-02T15:51:01.282Z,8.40
2023-01-02T15:53:32.045Z,8.95
2023-01-02T15:56:00.958Z,12.38
2023-01-02T15:58:30.032Z,9.48
2023-01-02T16:01:15.024Z,7.68
2023-01-02T16:04:01.422Z,7.45
2023-01-02T16:06:34.942Z,9.18
2023-01-02T16:09:06.747Z,6.78
2023-01-02T16:11:37.028Z,7.90
2023-01-02T16:14:22.373Z,8.10
2023-01-02T16:16:53.503Z,9.32
2023-01-02T16:19:24.214Z,7.22
2023-01-02T16:21:53.574Z,6.93
2023-01-02T16:24:25.663Z,7.43
2023-01-02T16:26:54.229Z,8.75
2023-01-02T16:29:24.099Z,7.53
2023-01-02T16:31:54.240Z,8.32
2023-01-02T16:34:41.431Z,10.38
2023-01-02T16:37:22.378Z,9.45
2023-01-02T16:39:52.659Z,9.23
2023-01-02T16:42:36.694Z,8.73
2023-01-02T16:45:06.053Z,5.78
2023-01-02T16:47:38.419Z,5.90
2023-01-02T16:50:08.006Z,6.78
2023-01-02T16:52:38.107Z,5.53
2023-01-02T16:55:08.646Z,4.28
2023-01-02T16:57:37.078Z,4.07
2023-01-02T17:00:06.287Z,3.80
2023-01-02T17:02:34.956Z,2.70
2023-01-02T17:05:03.994Z,4.38
2023-01-02T17:07:32.432Z,3.15
2023-01-02T17:10:00.913Z,4.53
2023-01-02T17:12:30.764Z,3.63
2023-01-02T17:14:59.290Z,2.33
2023-01-02T17:17:27.742Z,3.25
2023-01-02T17:19:56.151Z,2.13
2023-01-02T17:22:24.653Z,2.85
2023-01-02T17:24:53.037Z,1.77
2023-01-02T17:27:21.772Z,2.20
2023-01-02T17:29:51.580Z,2.45
2023-01-02T17:32:20.037Z,2.13
2023-01-02T17:34:48.624Z,2.47
2023-01-02T17:37:17.746Z,2.00
2023-01-02T17:39:47.685Z,3.67
2023-01-02T17:42:16.116Z,2.55
2023-01-02T17:44:44.547Z,3.03
2023-01-02T17:47:48.695Z,2.80
2023-01-02T17:50:03.098Z,4.38
2023-01-02T17:52:31.628Z,3.63
2023-01-02T17:55:00.043Z,2.90
2023-01-02T17:57:28.781Z,2.22
2023-01-02T17:59:57.713Z,5.13
2023-01-02T18:02:27.976Z,2.15
2023-01-02T18:04:56.499Z,3.65
2023-01-02T18:07:24.960Z,3.38
2023-01-02T18:10:07.391Z,3.35
2023-01-02T18:12:38.099Z,2.25
2023-01-02T18:15:11.799Z,5.85
2023-01-02T18:17:41.624Z,4.32
2023-01-02T18:20:12.687Z,4.35
2023-01-02T18:22:48.495Z,2.60
2023-01-02T18:25:20.291Z,4.10
2023-01-02T18:27:49.147Z,3.30
2023-01-02T18:30:19.757Z,5.03
2023-01-02T18:32:50.557Z,3.63
2023-01-02T18:35:55.440Z,4.78
2023-01-02T18:38:15.878Z,3.35
2023-01-02T18:40:44.419Z,3.92
2023-01-02T18:43:20.547Z,3.60
2023-01-02T18:45:51.000Z,4.32
2023-01-02T18:48:21.413Z,3.40
2023-01-02T18:50:58.942Z,5.03
2023-01-02T18:53:31.861Z,4.13
2023-01-02T18:56:02.147Z,5.18
2023-01-02T18:58:51.520Z,3.75
2023-01-02T19:01:27.645Z,6.10
2023-01-02T19:04:03.005Z,5.90
2023-01-02T19:06:35.000Z,7.53
2023-01-02T19:09:04.275Z,5.65
2023-01-02T19:11:51.966Z,4.88
2023-01-02T19:14:21.307Z,5.30
2023-01-02T19:16:50.527Z,6.07
2023-01-02T19:19:28.673Z,5.22
2023-01-02T19:21:59.595Z,5.22
2023-01-02T19:24:35.562Z,7.85
2023-01-02T19:27:04.655Z,6.15
2023-01-02T19:29:38.451Z,6.88
2023-01-02T19:32:13.890Z,8.50
2023-01-02T19:34:45.120Z,6.22
2023-01-02T19:37:23.625Z,7.57
2023-01-02T19:39:55.760Z,5.68
2023-01-02T19:42:24.925Z,7.88
2023-01-02T19:44:54.447Z,6.28
2023-01-02T19:47:23.757Z,5.88
2023-01-02T19:49:56.814Z,12.20
2023-01-02T19:52:29.410Z,7.60
2023-01-02T19:54:58.274Z,10.05
2023-01-02T19:57:27.034Z,7.85
2023-01-02T19:59:56.817Z,9.80
2023-01-02T20:02:25.894Z,9.93
2023-01-02T20:04:56.433Z,8.02
2023-01-02T20:07:25.936Z,7.30
2023-01-02T20:09:55.004Z,11.35
2023-01-02T20:12:40.208Z,8.15
2023-01-02T20:15:10.716Z,9.48
2023-01-02T20:17:39.735Z,8.38
2023-01-02T20:20:10.825Z,7.72
2023-01-02T20:22:39.449Z,8.73
2023-01-02T20:25:08.469Z,7.70
2023-01-02T20:27:37.229Z,9.90
2023-01-02T20:30:06.072Z,8.20
2023-01-02T20:32:34.540Z,9.98
2023-01-02T20:35:02.979Z,9.30
2023-01-02T20:37:32.850Z,11.02
2023-01-02T20:40:01.309Z,12.32
2023-01-02T20:42:29.803Z,11.18
2023-01-02T20:44:58.292Z,12.20
2023-01-02T20:47:27.010Z,13.35
2023-01-02T20:49:55.575Z,13.20
2023-01-02T20:52:23.982Z,11.52
2023-01-02T20:54:53.887Z,12.50
2023-01-02T20:57:22.316Z,10.05
2023-01-02T20:59:51.113Z,10.77
2023-01-02T21:02:20.110Z,10.57
2023-01-02T21:04:48.824Z,11.38
2023-01-02T21:07:17.258Z,11.75
2023-01-02T21:09:45.697Z,11.90
2023-01-02T21:12:29.441Z,14.70
2023-01-02T21:14:58.354Z,11.27
2023-01-02T21:17:27.005Z,14.10
2023-01-02T21:19:55.506Z,9.77
2023-01-02T21:22:24.011Z,9.73
2023-01-02T21:24:52.524Z,11.02
2023-01-02T21:27:22.313Z,14.98
2023-01-02T21:29:50.811Z,12.50
2023-01-02T21:32:19.271Z,10.45
2023-01-02T21:34:48.075Z,13.23
2023-01-02T21:37:16.539Z,13.30
2023-01-02T21:39:47.535Z,12.40
2023-01-02T21:42:19.291Z,14.02
2023-01-02T21:44:49.307Z,11.27
2023-01-02T21:47:18.326Z,12.77
2023-01-02T21:49:47.082Z,15.27
2023-01-02T21:52:15.858Z,13.27
2023-01-02T21:54:44.507Z,14.23
2023-01-02T21:57:13.545Z,15.10
2023-01-02T21:59:42.116Z,14.70
2023-01-02T22:02:12.084Z,16.98
2023-01-02T22:04:40.646Z,13.02
2023-01-02T22:09:57.580Z,15.35
2023-01-02T22:12:27.336Z,15.75
2023-01-02T22:14:55.843Z,15.45
2023-01-02T22:17:25.727Z,15.40
2023-01-02T22:19:54.432Z,16.17
2023-01-02T22:22:22.936Z,15.45
2023-01-02T22:24:51.587Z,16.83
2023-01-02T22:27:21.073Z,15.48
2023-01-02T22:32:40.425Z,17.55
2023-01-02T22:35:09.571Z,18.67
2023-01-02T22:37:38.035Z,19.90
2023-01-02T22:40:06.925Z,16.92
2023-01-02T22:43:02.699Z,14.30
2023-01-02T22:45:33.462Z,16.30
2023-01-02T22:48:05.138Z,16.75
2023-01-02T22:50:43.748Z,18.50
2023-01-02T22:53:17.370Z,18.52
2023-01-02T22:55:45.843Z,15.80
2023-01-02T22:58:14.277Z,21.23
2023-01-02T23:00:42.760Z,16.02
2023-01-02T23:03:14.282Z,21.13
2023-01-02T23:05:43.262Z,18.52
2023-01-02T23:08:11.752Z,19.83
2023-01-02T23:10:40.327Z,20.70
2023-01-02T23:13:08.732Z,18.88
2023-01-02T23:15:57.138Z,16.60
2023-01-02T23:18:44.781Z,19.27
2023-01-02T23:21:13.487Z,17.13
2023-01-02T23:23:42.335Z,17.95
2023-01-02T23:26:10.915Z,18.95
2023-01-02T23:29:06.030Z,13.85
2023-01-02T23:31:27.974Z,16.67
2023-01-02T23:33:57.837Z,14.20
2023-01-02T23:36:26.300Z,18.92
2023-01-02T23:38:54.753Z,14.25
2023-01-02T23:41:23.374Z,14.13
2023-01-02T23:43:52.504Z,12.02
2023-01-02T23:46:21.131Z,11.32
2023-01-02T23:48:49.599Z,14.55
2023-01-02T23:51:19.492Z,16.38
2023-01-02T23:53:47.919Z,11.57
2023-01-02T23:56:18.617Z,14.57
2023-01-02T23:58:47.152Z,11.32
